Time;durP1;ratioP1;P1;durP2;ratioP2;P2;SDS_P1;SDS_P2;PMS_P1;PMS_P2;Temp;Humidity;BMP_temperature;BMP_pressure;BME280_temperature;BME280_humidity;BME280_pressure;Samples;Min_cycle;Max_cycle;Signal;HPM_P1;HPM_P2
2023/12/11 00:00:21;;;;;;;13.32;12.60;;;;;;;;;;5098321;28;20051;-82
2023/12/11 00:02:47;;;;;;;16.58;15.65;;;;;;;;;;5099482;27;20074;-83
2023/12/11 00:05:14;;;;;;;14.75;13.82;;;;;;;;;;5114946;28;20056;-82
2023/12/11 00:07:40;;;;;;;15.50;14.25;;;;;;;;;;5114908;28;20073;-83
2023/12/11 00:10:09;;;;;;;14.82;13.80;;;;;;;;;;5114968;28;20039;-82
2023/12/11 00:12:36;;;;;;;14.10;13.07;;;;;;;;;;5101960;28;20500;-83
2023/12/11 00:15:03;;;;;;;13.10;12.15;;;;;;;;;;5094332;28;20052;-81
2023/12/11 00:17:30;;;;;;;12.57;11.50;;;;;;;;;;5094328;28;20055;-81
2023/12/11 00:19:56;;;;;;;13.00;12.40;;;;;;;;;;5101771;28;20122;-81
2023/12/11 00:22:23;;;;;;;15.88;14.85;;;;;;;;;;5106592;28;20082;-81
2023/12/11 00:24:49;;;;;;;11.45;10.85;;;;;;;;;;5094057;28;20509;-81
2023/12/11 00:27:18;;;;;;;9.95;9.45;;;;;;;;;;5093996;28;20055;-81
2023/12/11 00:29:44;;;;;;;10.13;9.70;;;;;;;;;;5094062;28;20091;-81
2023/12/11 00:32:11;;;;;;;8.65;8.05;;;;;;;;;;5108216;28;20426;-82
2023/12/11 00:34:37;;;;;;;12.52;11.93;;;;;;;;;;5093721;28;20052;-81
2023/12/11 00:37:04;;;;;;;9.40;8.93;;;;;;;;;;5093843;28;20059;-80
2023/12/11 00:39:31;;;;;;;14.50;13.63;;;;;;;;;;5093914;28;20040;-81
2023/12/11 00:41:57;;;;;;;14.80;13.73;;;;;;;;;;5098383;28;20043;-80
2023/12/11 00:44:25;;;;;;;8.38;7.68;;;;;;;;;;5101786;28;21791;-82
2023/12/11 00:46:52;;;;;;;6.00;5.47;;;;;;;;;;5097647;28;20412;-82
2023/12/11 00:49:18;;;;;;;13.07;12.27;;;;;;;;;;5111164;28;20043;-81
2023/12/11 00:51:46;;;;;;;13.35;12.73;;;;;;;;;;5113462;28;20051;-82
2023/12/11 00:54:12;;;;;;;12.27;11.70;;;;;;;;;;5101554;28;20411;-82
2023/12/11 00:56:39;;;;;;;12.00;11.10;;;;;;;;;;5113693;28;20058;-82
2023/12/11 00:59:06;;;;;;;12.65;11.63;;;;;;;;;;5114096;28;20082;-79
2023/12/11 01:01:34;;;;;;;12.10;11.43;;;;;;;;;;5112410;28;20040;-79
2023/12/11 01:04:00;;;;;;;13.43;12.57;;;;;;;;;;5105484;28;20051;-79
2023/12/11 01:06:27;;;;;;;9.60;9.10;;;;;;;;;;5093472;28;20044;-79
2023/12/11 01:08:54;;;;;;;11.88;11.23;;;;;;;;;;5102657;28;20047;-78
2023/12/11 01:11:20;;;;;;;9.38;8.80;;;;;;;;;;5112810;28;20048;-79
2023/12/11 01:13:47;;;;;;;7.90;7.57;;;;;;;;;;5109972;28;20043;-79
2023/12/11 01:16:13;;;;;;;10.23;9.75;;;;;;;;;;5099051;27;20048;-79
2023/12/11 01:18:41;;;;;;;11.13;10.52;;;;;;;;;;5104528;28;20051;-79
2023/12/11 01:21:08;;;;;;;12.90;12.13;;;;;;;;;;5093152;28;20047;-79
2023/12/11 01:23:34;;;;;;;8.75;8.25;;;;;;;;;;5098485;28;20052;-80
2023/12/11 01:26:01;;;;;;;8.68;8.27;;;;;;;;;;5094747;28;20044;-79
2023/12/11 01:28:28;;;;;;;10.73;10.20;;;;;;;;;;5092887;28;20052;-80
2023/12/11 01:30:54;;;;;;;3.92;3.72;;;;;;;;;;5092318;27;20440;-78
2023/12/11 01:33:21;;;;;;;9.95;9.45;;;;;;;;;;5112298;28;20044;-78
2023/12/11 01:35:49;;;;;;;10.13;9.73;;;;;;;;;;5100221;28;20044;-79
2023/12/11 01:38:15;;;;;;;11.73;11.23;;;;;;;;;;5092839;28;20055;-81
2023/12/11 01:40:42;;;;;;;9.45;9.02;;;;;;;;;;5092675;28;20048;-78
2023/12/11 01:43:12;;;;;;;13.27;12.57;;;;;;;;;;5092756;28;20118;-77
2023/12/11 01:45:40;;;;;;;12.02;11.40;;;;;;;;;;5099808;28;20104;-79
2023/12/11 01:48:06;;;;;;;12.40;11.68;;;;;;;;;;5111317;28;20056;-79
2023/12/11 01:50:33;;;;;;;12.52;11.57;;;;;;;;;;5112986;28;20051;-77
2023/12/11 01:53:01;;;;;;;12.70;11.88;;;;;;;;;;5106813;28;20059;-77
2023/12/11 01:55:28;;;;;;;8.05;7.28;;;;;;;;;;5100170;28;20424;-77
2023/12/11 01:57:55;;;;;;;11.45;10.80;;;;;;;;;;5091913;28;20044;-77
2023/12/11 02:00:22;;;;;;;10.88;10.18;;;;;;;;;;5092377;28;20055;-78
2023/12/11 02:02:49;;;;;;;10.98;10.45;;;;;;;;;;5092269;28;20052;-78
2023/12/11 02:05:16;;;;;;;13.32;12.40;;;;;;;;;;5100523;28;20051;-78
2023/12/11 02:07:42;;;;;;;10.82;9.90;;;;;;;;;;5092439;28;20047;-78
2023/12/11 02:10:11;;;;;;;10.52;10.02;;;;;;;;;;5091891;28;20050;-78
2023/12/11 02:12:38;;;;;;;10.80;10.20;;;;;;;;;;5092291;28;20052;-81
2023/12/11 02:15:05;;;;;;;10.85;10.30;;;;;;;;;;5094497;28;20052;-83
2023/12/11 02:17:32;;;;;;;13.43;12.73;;;;;;;;;;5097405;28;20047;-82
2023/12/11 02:19:58;;;;;;;11.00;8.80;;;;;;;;;;5100752;28;20048;-79
2023/12/11 02:22:25;;;;;;;9.70;9.05;;;;;;;;;;5109279;28;20052;-80
2023/12/11 02:24:55;;;;;;;9.68;9.10;;;;;;;;;;5112867;28;20073;-83
2023/12/11 02:27:24;;;;;;;17.42;15.38;;;;;;;;;;5101746;28;20044;-83
2023/12/11 02:29:53;;;;;;;12.45;11.65;;;;;;;;;;5109766;28;20055;-83
2023/12/11 02:32:20;;;;;;;10.93;10.27;;;;;;;;;;5110703;28;20074;-82
2023/12/11 02:34:47;;;;;;;10.68;9.98;;;;;;;;;;5112352;28;20075;-82
2023/12/11 02:37:14;;;;;;;10.43;9.82;;;;;;;;;;5105608;28;20088;-81
2023/12/11 02:39:40;;;;;;;8.90;8.50;;;;;;;;;;5091726;28;20048;-78
2023/12/11 02:42:07;;;;;;;11.73;11.13;;;;;;;;;;5092000;28;20055;-81
2023/12/11 02:44:35;;;;;;;12.27;11.40;;;;;;;;;;5091955;28;20567;-80
2023/12/11 02:47:01;;;;;;;9.45;8.73;;;;;;;;;;5099237;28;20048;-79
2023/12/11 02:49:28;;;;;;;10.38;9.73;;;;;;;;;;5102408;28;20051;-79
2023/12/11 02:51:55;;;;;;;6.03;5.60;;;;;;;;;;5112072;28;20408;-78
2023/12/11 02:54:21;;;;;;;9.85;9.25;;;;;;;;;;5111987;28;20044;-78
2023/12/11 02:56:48;;;;;;;11.32;10.73;;;;;;;;;;5111197;28;20130;-78
2023/12/11 02:59:14;;;;;;;12.63;11.77;;;;;;;;;;5095407;28;20051;-79
2023/12/11 03:01:42;;;;;;;11.70;11.07;;;;;;;;;;5091569;28;20047;-78
2023/12/11 03:04:09;;;;;;;12.98;12.30;;;;;;;;;;5093805;28;20048;-81
2023/12/11 03:06:35;;;;;;;13.27;12.13;;;;;;;;;;5110819;28;20055;-80
2023/12/11 03:09:03;;;;;;;11.85;11.15;;;;;;;;;;5099768;28;20409;-80
2023/12/11 03:11:29;;;;;;;12.55;11.90;;;;;;;;;;5091764;28;20044;-79
2023/12/11 03:13:56;;;;;;;9.60;9.15;;;;;;;;;;5092027;28;20044;-79
2023/12/11 03:16:22;;;;;;;12.40;11.77;;;;;;;;;;5091342;28;20055;-78
2023/12/11 03:18:50;;;;;;;11.70;11.10;;;;;;;;;;5098725;28;20455;-79
2023/12/11 03:21:17;;;;;;;12.60;11.88;;;;;;;;;;5094295;28;20537;-79
2023/12/11 03:23:44;;;;;;;10.70;9.98;;;;;;;;;;5116569;28;20416;-80
2023/12/11 03:26:11;;;;;;;11.80;11.10;;;;;;;;;;5118384;28;20048;-80
2023/12/11 03:28:37;;;;;;;15.27;14.43;;;;;;;;;;5117187;28;20047;-79
2023/12/11 03:31:04;;;;;;;12.00;11.18;;;;;;;;;;5098219;28;20059;-79
2023/12/11 03:33:31;;;;;;;13.55;12.63;;;;;;;;;;5102061;28;20043;-79
2023/12/11 03:35:59;;;;;;;9.45;8.77;;;;;;;;;;5118553;28;20047;-79
2023/12/11 03:38:25;;;;;;;9.95;9.55;;;;;;;;;;5118259;28;20046;-79
2023/12/11 03:40:52;;;;;;;11.65;10.98;;;;;;;;;;5099709;28;20048;-79
2023/12/11 03:43:18;;;;;;;13.88;13.13;;;;;;;;;;5096462;28;20059;-79
2023/12/11 03:45:45;;;;;;;12.77;12.13;;;;;;;;;;5096860;28;20612;-79
2023/12/11 03:48:12;;;;;;;14.90;14.20;;;;;;;;;;5095843;28;20043;-79
2023/12/11 03:50:38;;;;;;;11.50;10.77;;;;;;;;;;5113046;28;20040;-80
2023/12/11 03:53:06;;;;;;;11.85;11.23;;;;;;;;;;5115089;28;20051;-79
2023/12/11 03:55:33;;;;;;;10.38;9.93;;;;;;;;;;5115084;28;20112;-80
2023/12/11 03:57:59;;;;;;;13.52;12.77;;;;;;;;;;5115096;28;20048;-80
2023/12/11 04:00:26;;;;;;;15.15;14.45;;;;;;;;;;5107574;28;20059;-79
2023/12/11 04:02:52;;;;;;;15.27;14.48;;;;;;;;;;5094579;28;20044;-80
2023/12/11 04:05:19;;;;;;;7.50;7.00;;;;;;;;;;5094770;28;20431;-80
2023/12/11 04:07:45;;;;;;;13.30;12.63;;;;;;;;;;5104002;28;20062;-80
2023/12/11 04:10:13;;;;;;;15.25;14.43;;;;;;;;;;5112600;28;20055;-80
2023/12/11 04:12:42;;;;;;;9.57;9.13;;;;;;;;;;5094205;28;20048;-79
2023/12/11 04:15:09;;;;;;;12.88;12.18;;;;;;;;;;5094351;28;20052;-79
2023/12/11 04:17:36;;;;;;;12.52;11.68;;;;;;;;;;5094290;28;20090;-79
2023/12/11 04:20:03;;;;;;;11.85;11.20;;;;;;;;;;5099248;28;20044;-79
2023/12/11 04:22:30;;;;;;;11.88;10.93;;;;;;;;;;5096391;28;20060;-80
2023/12/11 04:24:56;;;;;;;13.10;12.30;;;;;;;;;;5107985;27;20048;-80
2023/12/11 04:27:24;;;;;;;11.43;10.57;;;;;;;;;;5114415;28;20047;-80
2023/12/11 04:29:51;;;;;;;10.88;10.20;;;;;;;;;;5114020;28;20431;-79
2023/12/11 04:32:17;;;;;;;13.25;12.55;;;;;;;;;;5100773;28;20059;-79
2023/12/11 04:34:44;;;;;;;10.05;9.23;;;;;;;;;;5099965;28;20043;-79
2023/12/11 04:37:11;;;;;;;9.88;9.32;;;;;;;;;;5114190;28;20043;-80
2023/12/11 04:39:37;;;;;;;10.80;10.10;;;;;;;;;;5114438;28;20052;-80
2023/12/11 04:42:04;;;;;;;10.45;9.77;;;;;;;;;;5105555;28;20056;-79
2023/12/11 04:44:32;;;;;;;12.77;11.77;;;;;;;;;;5093935;28;20055;-80
2023/12/11 04:46:59;;;;;;;11.50;10.80;;;;;;;;;;5093912;28;20071;-81
2023/12/11 04:49:25;;;;;;;15.18;14.20;;;;;;;;;;5094031;28;20048;-81
2023/12/11 04:51:52;;;;;;;11.30;10.60;;;;;;;;;;5102626;28;20048;-80
2023/12/11 04:54:18;;;;;;;12.55;11.88;;;;;;;;;;5093638;28;20099;-80
2023/12/11 04:56:45;;;;;;;12.57;11.43;;;;;;;;;;5093941;28;20043;-81
2023/12/11 04:59:12;;;;;;;13.20;12.43;;;;;;;;;;5094231;28;20052;-82
2023/12/11 05:01:40;;;;;;;6.50;5.07;;;;;;;;;;5099738;28;20396;-77
2023/12/11 05:04:06;;;;;;;12.57;11.88;;;;;;;;;;5094875;28;20052;-78
2023/12/11 05:06:33;;;;;;;12.10;11.25;;;;;;;;;;5093469;28;20488;-78
2023/12/11 05:08:59;;;;;;;12.48;11.57;;;;;;;;;;5098617;27;20047;-78
2023/12/11 05:11:26;;;;;;;11.82;10.05;;;;;;;;;;5112761;28;20082;-81
2023/12/11 05:13:52;;;;;;;10.88;10.15;;;;;;;;;;5100111;28;20044;-82
2023/12/11 05:16:19;;;;;;;9.48;8.88;;;;;;;;;;5093378;28;20089;-82
2023/12/11 05:18:47;;;;;;;10.25;9.65;;;;;;;;;;5093260;28;20067;-82
2023/12/11 05:21:14;;;;;;;10.60;9.95;;;;;;;;;;5093354;28;20074;-82
2023/12/11 05:23:40;;;;;;;9.27;8.77;;;;;;;;;;5100640;28;20055;-82
2023/12/11 05:26:07;;;;;;;10.63;10.00;;;;;;;;;;5094533;28;20048;-83
2023/12/11 05:28:33;;;;;;;11.38;10.70;;;;;;;;;;5113454;28;20043;-82
2023/12/11 05:31:00;;;;;;;8.30;7.78;;;;;;;;;;5113341;28;20047;-85
2023/12/11 05:33:26;;;;;;;11.00;10.15;;;;;;;;;;5108911;28;20075;-82
2023/12/11 05:35:54;;;;;;;10.95;9.93;;;;;;;;;;5100096;28;20498;-82
2023/12/11 05:38:21;;;;;;;8.27;7.88;;;;;;;;;;5113271;28;20514;-80
2023/12/11 05:40:48;;;;;;;12.45;11.85;;;;;;;;;;5113756;28;20047;-83
2023/12/11 05:43:14;;;;;;;9.18;8.77;;;;;;;;;;5111956;28;20047;-83
2023/12/11 05:45:41;;;;;;;11.02;10.48;;;;;;;;;;5093577;28;20043;-82
2023/12/11 05:48:08;;;;;;;13.02;12.23;;;;;;;;;;5092939;28;20069;-81
2023/12/11 05:50:34;;;;;;;10.65;9.65;;;;;;;;;;5094766;28;20137;-80
2023/12/11 05:53:02;;;;;;;13.95;13.10;;;;;;;;;;5111983;28;20126;-80
2023/12/11 05:55:28;;;;;;;12.63;11.73;;;;;;;;;;5098460;28;20048;-81
2023/12/11 05:57:55;;;;;;;12.18;11.57;;;;;;;;;;5092655;28;20055;-81
2023/12/11 06:00:21;;;;;;;8.57;8.02;;;;;;;;;;5092483;28;20480;-81
2023/12/11 06:02:48;;;;;;;8.38;7.97;;;;;;;;;;5092304;28;20047;-81
2023/12/11 06:05:15;;;;;;;12.43;11.82;;;;;;;;;;5099993;28;20059;-81
2023/12/11 06:07:41;;;;;;;7.80;7.45;;;;;;;;;;5092109;28;20054;-81
2023/12/11 06:10:10;;;;;;;9.02;8.40;;;;;;;;;;5112728;28;20051;-81
2023/12/11 06:12:36;;;;;;;8.57;8.10;;;;;;;;;;5112840;28;20047;-87
2023/12/11 06:15:03;;;;;;;9.63;9.20;;;;;;;;;;5107742;28;20059;-84
2023/12/11 06:17:30;;;;;;;8.80;8.27;;;;;;;;;;5092493;28;20052;-84
2023/12/11 06:19:56;;;;;;;8.43;5.18;;;;;;;;;;5092276;28;20431;-83
2023/12/11 06:22:23;;;;;;;12.13;11.27;;;;;;;;;;5091869;28;20048;-83
2023/12/11 06:24:49;;;;;;;10.57;10.07;;;;;;;;;;5099237;28;20043;-83
2023/12/11 06:27:17;;;;;;;11.80;11.00;;;;;;;;;;5105234;28;20039;-83
2023/12/11 06:29:44;;;;;;;9.82;9.20;;;;;;;;;;5112539;28;20047;-82
2023/12/11 06:32:11;;;;;;;13.98;9.07;;;;;;;;;;5100623;28;20055;-83
2023/12/11 06:34:37;;;;;;;12.20;11.68;;;;;;;;;;5093928;28;20063;-85
2023/12/11 06:37:04;;;;;;;11.98;10.98;;;;;;;;;;5106193;28;20134;-84
2023/12/11 06:39:31;;;;;;;11.95;11.25;;;;;;;;;;5112551;28;20419;-85
2023/12/11 06:41:58;;;;;;;11.23;10.63;;;;;;;;;;5112803;28;20055;-84
2023/12/11 06:44:26;;;;;;;10.73;10.02;;;;;;;;;;5112466;28;20048;-83
2023/12/11 06:46:53;;;;;;;12.38;9.05;;;;;;;;;;5091982;28;20456;-84
2023/12/11 06:49:19;;;;;;;14.40;13.18;;;;;;;;;;5101398;28;20051;-84
2023/12/11 06:51:46;;;;;;;11.75;11.15;;;;;;;;;;5112014;28;20048;-84
2023/12/11 06:54:12;;;;;;;12.23;11.45;;;;;;;;;;5110692;28;20070;-84
2023/12/11 06:56:39;;;;;;;11.85;10.98;;;;;;;;;;5114443;28;20055;-85
2023/12/11 06:59:06;;;;;;;13.35;12.25;;;;;;;;;;5115981;28;20104;-84
2023/12/11 07:01:34;;;;;;;14.57;13.48;;;;;;;;;;5115707;28;20044;-84
2023/12/11 07:04:01;;;;;;;8.65;7.68;;;;;;;;;;5116433;28;20427;-84
2023/12/11 07:06:28;;;;;;;15.65;14.15;;;;;;;;;;5103114;28;20047;-85
2023/12/11 07:08:54;;;;;;;12.23;11.63;;;;;;;;;;5116209;28;20055;-82
2023/12/11 07:11:21;;;;;;;13.07;12.27;;;;;;;;;;5113383;28;20048;-81
2023/12/11 07:13:48;;;;;;;12.38;11.57;;;;;;;;;;5109130;28;20049;-83
2023/12/11 07:16:15;;;;;;;14.18;13.02;;;;;;;;;;5115345;28;20488;-80
2023/12/11 07:18:44;;;;;;;15.52;14.23;;;;;;;;;;5104394;28;20040;-74
2023/12/11 07:21:11;;;;;;;14.90;13.90;;;;;;;;;;5109378;28;20060;-75
2023/12/11 07:23:37;;;;;;;17.02;15.90;;;;;;;;;;5116554;27;20047;-74
2023/12/11 07:26:08;;;;;;;16.75;15.63;;;;;;;;;;5115649;28;20519;-69
2023/12/11 07:28:34;;;;;;;17.60;16.40;;;;;;;;;;5106096;28;20492;-74
2023/12/11 07:31:02;;;;;;;16.17;15.27;;;;;;;;;;5115397;28;20039;-74
2023/12/11 07:33:28;;;;;;;18.23;16.70;;;;;;;;;;5115164;28;20052;-74
2023/12/11 07:35:56;;;;;;;20.23;18.73;;;;;;;;;;5100234;28;20055;-74
2023/12/11 07:38:25;;;;;;;14.02;13.13;;;;;;;;;;5108921;28;20492;-74
2023/12/11 07:40:51;;;;;;;16.83;15.70;;;;;;;;;;5115039;28;20063;-75
2023/12/11 07:43:18;;;;;;;9.75;9.00;;;;;;;;;;5115228;28;20412;-75
2023/12/11 07:45:44;;;;;;;15.60;14.20;;;;;;;;;;5101245;28;20048;-74
2023/12/11 07:48:11;;;;;;;19.73;18.40;;;;;;;;;;5110404;28;20054;-75
2023/12/11 07:50:39;;;;;;;16.92;15.90;;;;;;;;;;5114668;28;20040;-75
2023/12/11 07:53:07;;;;;;;18.77;17.55;;;;;;;;;;5115137;28;20044;-74
2023/12/11 07:55:35;;;;;;;17.58;16.35;;;;;;;;;;5114975;28;20044;-75
2023/12/11 07:58:02;;;;;;;16.40;15.55;;;;;;;;;;5114059;28;20040;-75
2023/12/11 08:00:29;;;;;;;17.33;16.42;;;;;;;;;;5097347;28;20048;-75
2023/12/11 08:02:56;;;;;;;23.00;21.80;;;;;;;;;;5094587;28;20059;-75
2023/12/11 08:05:22;;;;;;;19.08;17.92;;;;;;;;;;5095035;28;20493;-75
2023/12/11 08:07:49;;;;;;;21.65;20.17;;;;;;;;;;5093710;28;20098;-76
2023/12/11 08:10:17;;;;;;;17.77;16.75;;;;;;;;;;5104202;28;20040;-76
2023/12/11 08:12:43;;;;;;;17.90;17.00;;;;;;;;;;5107510;28;20951;-75
2023/12/11 08:15:10;;;;;;;20.83;19.92;;;;;;;;;;5097529;28;20047;-76
2023/12/11 08:17:37;;;;;;;19.08;17.88;;;;;;;;;;5107040;28;20047;-77
2023/12/11 08:20:05;;;;;;;19.73;18.95;;;;;;;;;;5100011;28;20059;-76
2023/12/11 08:22:31;;;;;;;18.25;17.13;;;;;;;;;;5107220;28;20052;-76
2023/12/11 08:24:58;;;;;;;23.08;21.27;;;;;;;;;;5114702;28;20048;-76
2023/12/11 08:27:26;;;;;;;20.55;19.33;;;;;;;;;;5114500;28;20055;-76
2023/12/11 08:29:52;;;;;;;22.77;21.08;;;;;;;;;;5111361;28;20043;-76
2023/12/11 08:32:19;;;;;;;25.70;24.13;;;;;;;;;;5093694;28;20070;-77
2023/12/11 08:34:46;;;;;;;23.33;21.90;;;;;;;;;;5093955;28;20040;-76
2023/12/11 08:37:12;;;;;;;22.27;20.83;;;;;;;;;;5093831;28;20052;-77
2023/12/11 08:39:39;;;;;;;19.45;18.35;;;;;;;;;;5095780;28;20492;-77
2023/12/11 08:42:05;;;;;;;21.33;19.70;;;;;;;;;;5101587;28;20043;-76
2023/12/11 08:44:33;;;;;;;26.55;24.83;;;;;;;;;;5113680;28;20046;-76
2023/12/11 08:47:00;;;;;;;24.73;23.13;;;;;;;;;;5113905;28;20044;-76
2023/12/11 08:49:27;;;;;;;24.75;23.25;;;;;;;;;;5113745;28;20040;-76
2023/12/11 08:51:54;;;;;;;22.90;21.17;;;;;;;;;;5112809;28;20053;-77
2023/12/11 08:54:20;;;;;;;27.33;25.88;;;;;;;;;;5114131;28;20437;-76
2023/12/11 08:56:47;;;;;;;27.23;25.58;;;;;;;;;;5105505;28;20036;-76
2023/12/11 08:59:15;;;;;;;28.85;27.30;;;;;;;;;;5112973;28;20058;-77
2023/12/11 09:01:43;;;;;;;25.20;23.75;;;;;;;;;;5105908;28;20496;-77
2023/12/11 09:04:10;;;;;;;27.05;25.40;;;;;;;;;;5112795;28;20039;-76
2023/12/11 09:06:37;;;;;;;24.73;23.52;;;;;;;;;;5107713;28;20492;-77
2023/12/11 09:09:03;;;;;;;28.10;26.27;;;;;;;;;;5112963;28;20043;-76
2023/12/11 09:11:30;;;;;;;27.38;25.45;;;;;;;;;;5111725;28;20051;-77
2023/12/11 09:13:56;;;;;;;28.13;26.63;;;;;;;;;;5092147;28;20052;-76
2023/12/11 09:16:23;;;;;;;24.73;23.00;;;;;;;;;;5092431;28;20040;-77
2023/12/11 09:18:51;;;;;;;27.02;25.98;;;;;;;;;;5092264;28;20537;-77
2023/12/11 09:21:18;;;;;;;25.85;24.45;;;;;;;;;;5105825;28;20492;-77
2023/12/11 09:23:45;;;;;;;13.18;12.27;;;;;;;;;;5112774;28;20419;-77
2023/12/11 09:26:30;;;;;;;29.15;27.48;;;;;;;;;;5113273;28;20044;-77
2023/12/11 09:28:57;;;;;;;29.98;28.17;;;;;;;;;;5113523;28;20488;-78
2023/12/11 09:31:24;;;;;;;29.33;27.67;;;;;;;;;;5112532;28;21091;-79
2023/12/11 09:33:52;;;;;;;25.27;24.13;;;;;;;;;;5098032;28;20135;-79
2023/12/11 09:36:19;;;;;;;21.48;20.40;;;;;;;;;;5093092;28;20048;-77
2023/12/11 09:38:45;;;;;;;23.55;22.25;;;;;;;;;;5092676;28;20056;-78
2023/12/11 09:41:12;;;;;;;27.95;26.52;;;;;;;;;;5093193;28;20048;-79
2023/12/11 09:43:39;;;;;;;30.90;29.10;;;;;;;;;;5104946;28;20055;-78
2023/12/11 09:46:07;;;;;;;25.60;24.30;;;;;;;;;;5092919;28;20060;-77
2023/12/11 09:48:34;;;;;;;26.33;24.80;;;;;;;;;;5092585;28;20500;-78
2023/12/11 09:51:02;;;;;;;23.83;22.70;;;;;;;;;;5092715;28;20055;-78
2023/12/11 09:53:31;;;;;;;26.42;25.25;;;;;;;;;;5100571;28;20105;-80
2023/12/11 09:55:58;;;;;;;22.70;21.65;;;;;;;;;;5092561;28;20048;-78
2023/12/11 09:58:25;;;;;;;25.02;23.73;;;;;;;;;;5092423;28;20059;-78
2023/12/11 10:00:52;;;;;;;30.92;29.33;;;;;;;;;;5092512;28;20062;-79
2023/12/11 10:03:19;;;;;;;26.95;25.50;;;;;;;;;;5098861;28;20051;-81
2023/12/11 10:05:46;;;;;;;27.25;25.67;;;;;;;;;;5103396;28;20054;-80
2023/12/11 10:08:16;;;;;;;29.05;27.42;;;;;;;;;;5099998;28;20043;-80
2023/12/11 10:10:42;;;;;;;32.45;30.77;;;;;;;;;;5112581;28;20075;-82
2023/12/11 10:13:09;;;;;;;33.35;31.48;;;;;;;;;;5111719;28;20051;-82
2023/12/11 10:15:36;;;;;;;31.77;29.55;;;;;;;;;;5097686;28;20044;-81
2023/12/11 10:18:04;;;;;;;35.17;33.22;;;;;;;;;;5092192;28;20054;-81
2023/12/11 10:20:31;;;;;;;29.52;27.95;;;;;;;;;;5092078;28;20055;-81
2023/12/11 10:22:58;;;;;;;33.47;31.92;;;;;;;;;;5091953;28;20059;-79
2023/12/11 10:25:26;;;;;;;27.80;26.25;;;;;;;;;;5093859;28;20051;-79
2023/12/11 10:28:04;;;;;;;29.13;27.50;;;;;;;;;;5095740;28;20056;-79
2023/12/11 10:30:30;;;;;;;26.23;24.92;;;;;;;;;;5091837;28;20060;-80
2023/12/11 10:33:00;;;;;;;30.42;28.77;;;;;;;;;;5092421;28;20040;-79
2023/12/11 10:35:27;;;;;;;37.03;35.35;;;;;;;;;;5099238;28;20044;-77
2023/12/11 10:37:59;;;;;;;24.67;23.67;;;;;;;;;;5091347;28;20060;-77
2023/12/11 10:43:39;;;;;;;30.55;28.83;;;;;;;;;;5092110;28;20823;-78
2023/12/11 10:46:06;;;;;;;32.92;31.25;;;;;;;;;;5102311;28;20052;-78
2023/12/11 10:48:34;;;;;;;25.10;23.77;;;;;;;;;;5095718;28;20100;-78
2023/12/11 10:51:01;;;;;;;23.02;21.88;;;;;;;;;;5103514;28;20043;-80
2023/12/11 10:53:28;;;;;;;29.63;28.23;;;;;;;;;;5112156;28;20051;-77
2023/12/11 10:55:56;;;;;;;24.00;22.63;;;;;;;;;;5107008;28;20060;-82
2023/12/11 10:58:25;;;;;;;28.27;27.02;;;;;;;;;;5092194;28;20492;-79
2023/12/11 11:00:53;;;;;;;23.25;21.83;;;;;;;;;;5091820;28;20135;-81
2023/12/11 11:03:21;;;;;;;29.50;27.98;;;;;;;;;;5091668;28;20135;-79
2023/12/11 11:05:48;;;;;;;24.98;23.75;;;;;;;;;;5099386;28;20051;-79
2023/12/11 11:08:20;;;;;;;30.75;29.55;;;;;;;;;;5095149;28;20142;-80
2023/12/11 11:10:50;;;;;;;29.35;28.15;;;;;;;;;;5111359;28;20047;-82
2023/12/11 11:13:20;;;;;;;23.83;22.83;;;;;;;;;;5112821;28;20434;-83
2023/12/11 11:15:51;;;;;;;24.40;23.38;;;;;;;;;;5111763;28;20075;-83
2023/12/11 11:18:19;;;;;;;28.48;27.35;;;;;;;;;;5094477;28;20113;-82
2023/12/11 11:21:05;;;;;;;20.98;19.75;;;;;;;;;;5092240;28;20052;-83
2023/12/11 11:23:32;;;;;;;26.85;25.63;;;;;;;;;;5092616;28;20459;-84
2023/12/11 11:25:59;;;;;;;25.60;24.40;;;;;;;;;;5100888;28;20044;-83
2023/12/11 11:28:36;;;;;;;19.00;18.13;;;;;;;;;;5108161;28;20075;-82
2023/12/11 11:31:02;;;;;;;24.95;23.92;;;;;;;;;;5102325;28;20044;-82
2023/12/11 11:33:43;;;;;;;20.80;19.98;;;;;;;;;;5101683;28;20044;-82
2023/12/11 11:36:09;;;;;;;22.05;21.23;;;;;;;;;;5111434;28;20492;-83
2023/12/11 11:38:51;;;;;;;25.65;24.52;;;;;;;;;;5098446;28;20055;-83
2023/12/11 11:41:21;;;;;;;28.88;27.70;;;;;;;;;;5091217;28;20048;-82
2023/12/11 11:43:55;;;;;;;29.33;28.00;;;;;;;;;;5099821;28;20127;-82
2023/12/11 11:46:21;;;;;;;29.83;28.60;;;;;;;;;;5103302;28;20089;-83
2023/12/11 11:48:49;;;;;;;28.42;27.33;;;;;;;;;;5114430;28;20112;-82
2023/12/11 11:51:17;;;;;;;36.15;34.75;;;;;;;;;;5115654;28;20047;-83
2023/12/11 11:53:44;;;;;;;29.23;28.10;;;;;;;;;;5115253;28;20505;-82
2023/12/11 11:56:11;;;;;;;32.05;30.65;;;;;;;;;;5112909;28;20136;-83
2023/12/11 11:58:38;;;;;;;25.98;25.02;;;;;;;;;;5108568;28;20052;-82
2023/12/11 12:01:04;;;;;;;31.88;30.67;;;;;;;;;;5115436;28;20104;-82
2023/12/11 12:03:39;;;;;;;31.15;29.83;;;;;;;;;;5115215;28;20433;-82
2023/12/11 12:06:07;;;;;;;27.90;26.40;;;;;;;;;;5101920;28;20489;-82
2023/12/11 12:08:36;;;;;;;24.77;23.80;;;;;;;;;;5105605;28;20096;-84
2023/12/11 12:11:02;;;;;;;31.85;30.38;;;;;;;;;;5110489;28;20044;-84
2023/12/11 12:13:33;;;;;;;15.40;14.77;;;;;;;;;;5103562;28;20409;-85
2023/12/11 12:15:59;;;;;;;23.80;22.77;;;;;;;;;;5114066;28;20048;-85
2023/12/11 12:18:26;;;;;;;32.42;31.08;;;;;;;;;;5109930;28;20090;-85
2023/12/11 12:21:01;;;;;;;25.80;24.80;;;;;;;;;;5113178;28;20073;-86
2023/12/11 12:23:29;;;;;;;29.70;28.35;;;;;;;;;;5109259;28;20044;-85
2023/12/11 12:25:58;;;;;;;30.08;28.73;;;;;;;;;;5105499;28;20093;-86
2023/12/11 12:28:25;;;;;;;27.98;26.88;;;;;;;;;;5104656;28;20096;-85
2023/12/11 12:30:52;;;;;;;32.95;31.70;;;;;;;;;;5099998;28;20097;-85
2023/12/11 12:33:19;;;;;;;31.10;29.83;;;;;;;;;;5115515;28;20076;-84
2023/12/11 12:35:46;;;;;;;39.25;37.67;;;;;;;;;;5106584;28;20040;-85
2023/12/11 12:38:14;;;;;;;35.90;34.53;;;;;;;;;;5106662;28;20068;-84
2023/12/11 12:40:42;;;;;;;37.03;35.55;;;;;;;;;;5113801;28;20071;-84
2023/12/11 12:43:12;;;;;;;35.67;34.28;;;;;;;;;;5098071;28;20047;-85
2023/12/11 12:45:39;;;;;;;39.10;37.53;;;;;;;;;;5114715;28;20122;-85
2023/12/11 12:48:06;;;;;;;35.33;34.00;;;;;;;;;;5114604;28;20051;-85
2023/12/11 12:50:32;;;;;;;35.42;33.92;;;;;;;;;;5106552;28;20101;-88
2023/12/11 12:53:05;;;;;;;45.88;44.15;;;;;;;;;;5112920;28;20108;-86
2023/12/11 12:55:32;;;;;;;36.45;34.95;;;;;;;;;;5114370;28;20476;-85
2023/12/11 12:58:00;;;;;;;40.42;38.88;;;;;;;;;;5104019;28;20056;-84
2023/12/11 13:00:27;;;;;;;38.67;37.22;;;;;;;;;;5105508;28;20048;-85
2023/12/11 13:02:54;;;;;;;37.78;36.25;;;;;;;;;;5111859;28;20051;-84
2023/12/11 13:05:21;;;;;;;37.28;35.92;;;;;;;;;;5114082;28;20103;-85
2023/12/11 13:07:57;;;;;;;34.28;32.83;;;;;;;;;;5107336;28;20044;-84
2023/12/11 13:10:24;;;;;;;43.30;41.20;;;;;;;;;;5105955;28;20085;-85
2023/12/11 13:12:50;;;;;;;35.50;34.20;;;;;;;;;;5106406;28;20056;-86
2023/12/11 13:15:18;;;;;;;32.00;30.73;;;;;;;;;;5108908;28;20093;-85
2023/12/11 13:17:50;;;;;;;31.55;30.35;;;;;;;;;;5108009;28;20100;-84
2023/12/11 13:20:16;;;;;;;38.60;36.97;;;;;;;;;;5105760;28;20486;-84
2023/12/11 13:22:43;;;;;;;33.33;31.92;;;;;;;;;;5113129;28;20135;-84
2023/12/11 13:25:09;;;;;;;35.55;34.15;;;;;;;;;;5112050;28;20040;-84
2023/12/11 13:27:36;;;;;;;40.90;39.30;;;;;;;;;;5105051;28;20093;-84
2023/12/11 13:30:04;;;;;;;38.95;37.50;;;;;;;;;;5113948;28;20436;-84
2023/12/11 13:32:31;;;;;;;31.98;30.58;;;;;;;;;;5113137;28;20679;-85
2023/12/11 13:34:58;;;;;;;44.20;42.47;;;;;;;;;;5113578;28;20104;-85
2023/12/11 13:37:24;;;;;;;37.78;36.35;;;;;;;;;;5113750;28;20079;-84
2023/12/11 13:39:51;;;;;;;36.10;34.70;;;;;;;;;;5113310;28;20059;-84
2023/12/11 13:42:18;;;;;;;50.90;49.10;;;;;;;;;;5112481;28;20460;-83
2023/12/11 13:44:46;;;;;;;37.40;36.00;;;;;;;;;;5113749;28;20138;-83
2023/12/11 13:47:13;;;;;;;36.25;34.80;;;;;;;;;;5111588;28;20059;-84
2023/12/11 13:49:41;;;;;;;46.97;45.25;;;;;;;;;;5100073;28;20043;-83
2023/12/11 13:52:07;;;;;;;41.97;40.38;;;;;;;;;;5110939;28;20100;-83
2023/12/11 13:54:34;;;;;;;47.50;45.72;;;;;;;;;;5106699;28;20047;-82
2023/12/11 13:57:00;;;;;;;39.42;37.95;;;;;;;;;;5113326;28;20052;-81
2023/12/11 13:59:28;;;;;;;40.30;38.67;;;;;;;;;;5109071;28;20435;-83
2023/12/11 14:01:57;;;;;;;20.60;19.52;;;;;;;;;;5100685;28;20449;-82
2023/12/11 14:04:24;;;;;;;36.25;34.85;;;;;;;;;;5109585;28;20040;-83
2023/12/11 14:06:52;;;;;;;36.38;34.85;;;;;;;;;;5112541;28;20044;-82
2023/12/11 14:09:20;;;;;;;42.58;40.83;;;;;;;;;;5095254;28;20035;-83
2023/12/11 14:11:46;;;;;;;31.17;29.85;;;;;;;;;;5112401;28;20094;-83
2023/12/11 14:14:14;;;;;;;37.83;36.13;;;;;;;;;;5111612;28;20109;-83
2023/12/11 14:16:40;;;;;;;45.05;43.13;;;;;;;;;;5112170;28;20423;-83
2023/12/11 14:19:07;;;;;;;40.70;38.80;;;;;;;;;;5112312;28;20044;-83
2023/12/11 14:21:33;;;;;;;39.05;37.42;;;;;;;;;;5113164;28;20076;-82
2023/12/11 14:24:03;;;;;;;34.45;32.88;;;;;;;;;;5112183;28;20047;-83